< < Back
Terminal Aerodrome Forecast


Current Version              Previous Versions:   1  2  3  4  5  6  7  8  9  

Terminal Aerodrome Forecast

274
FTUS44 KOHX 302321
TAFCSV
TAF
KCSV 302321Z 0100/0124 31006KT P6SM SKC
      TEMPO 0107/0110 3SM BR
     FM011700 29008KT P6SM SCT050 SCT250=



Latest METAR

455
SAUS70 KWBC 010900 RRX
MTRCSV
METAR KCSV 010853Z AUTO 00000KT 9SM CLR 13/12 A3003 RMK AO2 SLP149
T01330122 55009


USA.gov is the U.S. government's official web portal to all federal, state and local government web resources and services.